Terminal Aerodrome Forecast
Issued by NWS Flagstaff, AZ

Home | Current Version | Previous Version | Text Only | Print | Product List | Glossary On
Versions: 1 2 3 4 5 6 7 8 9 10 11 12 13 14
000
FTUS45 KFGZ 040536
TAFFLG
TAF
KFLG 040536Z 0406/0506 22009KT P6SM SCT012 BKN100
      TEMPO 0406/0410 BKN012
     FM041800 22011G18KT P6SM SCT030 SCT100 BKN200
      TEMPO 0420/0424 VRB15G25KT -TSRA BKN030 BKN060CB
     FM050230 22006KT P6SM SCT040 SCT100=

USA.gov is the U.S. government's official web portal to all federal, state and local government web resources and services.